sensor_id;sensor_type;location;lat;lon;timestamp;pressure;altitude;pressure_sealevel;temperature;humidity
28267;BME280;15525;45.568;5.448;2023-02-28T00:00:13;98209.44;;;5.14;48.36
28267;BME280;15525;45.568;5.448;2023-02-28T00:02:39;98220.50;;;4.88;48.37
28267;BME280;15525;45.568;5.448;2023-02-28T00:05:07;98219.56;;;4.71;48.84
28267;BME280;15525;45.568;5.448;2023-02-28T00:07:32;98213.44;;;4.70;48.88
28267;BME280;15525;45.568;5.448;2023-02-28T00:09:58;98199.19;;;4.83;48.47
28267;BME280;15525;45.568;5.448;2023-02-28T00:12:24;98210.25;;;4.91;48.35
28267;BME280;15525;45.568;5.448;2023-02-28T00:14:51;98222.56;;;4.86;48.64
28267;BME280;15525;45.568;5.448;2023-02-28T00:17:17;98213.94;;;4.79;48.49
28267;BME280;15525;45.568;5.448;2023-02-28T00:19:50;98213.94;;;4.79;48.86
28267;BME280;15525;45.568;5.448;2023-02-28T00:22:19;98216.69;;;4.84;48.61
28267;BME280;15525;45.568;5.448;2023-02-28T00:24:45;98228.44;;;4.76;48.67
28267;BME280;15525;45.568;5.448;2023-02-28T00:27:11;98231.31;;;4.75;48.79
28267;BME280;15525;45.568;5.448;2023-02-28T00:29:37;98208.03;;;4.77;48.61
28267;BME280;15525;45.568;5.448;2023-02-28T00:32:03;98220.75;;;4.86;48.43
28267;BME280;15525;45.568;5.448;2023-02-28T00:34:29;98205.69;;;4.69;48.43
28267;BME280;15525;45.568;5.448;2023-02-28T00:36:55;98227.53;;;4.94;48.48
28267;BME280;15525;45.568;5.448;2023-02-28T00:39:20;98218.22;;;4.91;48.24
28267;BME280;15525;45.568;5.448;2023-02-28T00:41:46;98231.81;;;4.95;48.13
28267;BME280;15525;45.568;5.448;2023-02-28T00:44:12;98222.66;;;4.79;48.47
28267;BME280;15525;45.568;5.448;2023-02-28T00:46:37;98220.72;;;4.75;48.89
28267;BME280;15525;45.568;5.448;2023-02-28T00:49:02;98214.50;;;4.81;48.67
28267;BME280;15525;45.568;5.448;2023-02-28T00:51:28;98214.72;;;4.91;48.66
28267;BME280;15525;45.568;5.448;2023-02-28T00:53:54;98222.22;;;4.82;48.82
28267;BME280;15525;45.568;5.448;2023-02-28T00:56:20;98217.31;;;4.56;48.99
28267;BME280;15525;45.568;5.448;2023-02-28T00:58:46;98208.44;;;4.51;49.32
28267;BME280;15525;45.568;5.448;2023-02-28T01:01:11;98207.63;;;4.50;49.28
28267;BME280;15525;45.568;5.448;2023-02-28T01:03:37;98214.19;;;4.48;49.50
28267;BME280;15525;45.568;5.448;2023-02-28T01:06:02;98241.91;;;4.75;48.94
28267;BME280;15525;45.568;5.448;2023-02-28T01:08:28;98241.91;;;4.75;49.18
28267;BME280;15525;45.568;5.448;2023-02-28T01:10:53;98242.03;;;4.68;49.18
28267;BME280;15525;45.568;5.448;2023-02-28T01:13:19;98234.72;;;4.64;49.10
28267;BME280;15525;45.568;5.448;2023-02-28T01:15:53;98232.72;;;4.89;49.16
28267;BME280;15525;45.568;5.448;2023-02-28T01:18:20;98233.41;;;4.96;48.59
28267;BME280;15525;45.568;5.448;2023-02-28T01:20:46;98213.47;;;4.93;48.66
28267;BME280;15525;45.568;5.448;2023-02-28T01:23:12;98232.03;;;5.05;48.62
28267;BME280;15525;45.568;5.448;2023-02-28T01:25:37;98232.97;;;4.99;48.56
28267;BME280;15525;45.568;5.448;2023-02-28T01:28:03;98236.75;;;4.80;48.94
28267;BME280;15525;45.568;5.448;2023-02-28T01:30:30;98232.09;;;4.75;49.11
28267;BME280;15525;45.568;5.448;2023-02-28T01:32:55;98222.19;;;4.71;48.84
28267;BME280;15525;45.568;5.448;2023-02-28T01:35:21;98212.16;;;4.73;49.04
28267;BME280;15525;45.568;5.448;2023-02-28T01:37:46;98235.59;;;4.87;48.73
28267;BME280;15525;45.568;5.448;2023-02-28T01:40:12;98225.69;;;4.83;48.75
28267;BME280;15525;45.568;5.448;2023-02-28T01:42:38;98216.69;;;4.84;48.94
28267;BME280;15525;45.568;5.448;2023-02-28T01:45:20;98224.97;;;4.76;49.40
28267;BME280;15525;45.568;5.448;2023-02-28T01:47:50;98237.16;;;4.65;49.07
28267;BME280;15525;45.568;5.448;2023-02-28T01:50:22;98228.66;;;4.63;49.08
28267;BME280;15525;45.568;5.448;2023-02-28T01:52:50;98227.31;;;4.84;49.17
28267;BME280;15525;45.568;5.448;2023-02-28T01:55:18;98236.06;;;4.84;48.92
28267;BME280;15525;45.568;5.448;2023-02-28T01:57:49;98219.22;;;4.67;49.35
28267;BME280;15525;45.568;5.448;2023-02-28T02:00:18;98228.78;;;4.80;48.94
28267;BME280;15525;45.568;5.448;2023-02-28T02:02:49;98232.94;;;4.76;49.46
28267;BME280;15525;45.568;5.448;2023-02-28T02:05:19;98232.84;;;4.82;48.90
28267;BME280;15525;45.568;5.448;2023-02-28T02:07:47;98208.63;;;4.79;48.96
28267;BME280;15525;45.568;5.448;2023-02-28T02:10:16;98238.47;;;4.86;49.16
28267;BME280;15525;45.568;5.448;2023-02-28T02:13:00;98230.75;;;4.96;49.17
28267;BME280;15525;45.568;5.448;2023-02-28T02:15:34;98230.75;;;4.84;48.95
28267;BME280;15525;45.568;5.448;2023-02-28T02:20:55;98237.38;;;4.64;49.92
28267;BME280;15525;45.568;5.448;2023-02-28T02:23:33;98236.38;;;4.65;49.70
28267;BME280;15525;45.568;5.448;2023-02-28T02:31:52;98236.38;;;4.65;50.35
28267;BME280;15525;45.568;5.448;2023-02-28T02:37:02;98221.53;;;4.87;50.00
28267;BME280;15525;45.568;5.448;2023-02-28T02:39:47;98222.03;;;4.95;50.43
28267;BME280;15525;45.568;5.448;2023-02-28T02:42:21;98215.66;;;4.85;50.70
28267;BME280;15525;45.568;5.448;2023-02-28T02:44:55;98221.06;;;4.78;50.15
28267;BME280;15525;45.568;5.448;2023-02-28T02:47:24;98207.09;;;4.60;50.35
28267;BME280;15525;45.568;5.448;2023-02-28T02:49:54;98223.03;;;4.71;50.17
28267;BME280;15525;45.568;5.448;2023-02-28T02:52:27;98228.91;;;4.73;50.64
28267;BME280;15525;45.568;5.448;2023-02-28T02:54:55;98231.41;;;4.68;50.26
28267;BME280;15525;45.568;5.448;2023-02-28T02:57:35;98222.53;;;4.63;50.85
28267;BME280;15525;45.568;5.448;2023-02-28T03:00:05;98215.63;;;4.62;50.43
28267;BME280;15525;45.568;5.448;2023-02-28T03:02:35;98222.78;;;4.73;49.58
28267;BME280;15525;45.568;5.448;2023-02-28T03:05:12;98206.75;;;4.68;50.23
28267;BME280;15525;45.568;5.448;2023-02-28T03:07:39;98213.91;;;4.67;50.12
28267;BME280;15525;45.568;5.448;2023-02-28T03:10:46;98227.47;;;4.59;50.43
28267;BME280;15525;45.568;5.448;2023-02-28T03:24:55;98215.97;;;4.77;49.64
28267;BME280;15525;45.568;5.448;2023-02-28T03:32:34;98224.91;;;5.05;49.08
28267;BME280;15525;45.568;5.448;2023-02-28T03:35:03;98218.69;;;5.11;49.37
28267;BME280;15525;45.568;5.448;2023-02-28T03:37:32;98207.25;;;4.88;48.65
28267;BME280;15525;45.568;5.448;2023-02-28T03:40:08;98219.91;;;4.86;49.46
28267;BME280;15525;45.568;5.448;2023-02-28T03:42:36;98231.66;;;4.78;49.18
28267;BME280;15525;45.568;5.448;2023-02-28T03:45:11;98225.34;;;4.91;49.69
28267;BME280;15525;45.568;5.448;2023-02-28T03:47:42;98229.28;;;5.00;49.32
28267;BME280;15525;45.568;5.448;2023-02-28T03:50:33;98230.09;;;5.12;49.06
28267;BME280;15525;45.568;5.448;2023-02-28T03:53:08;98226.63;;;5.00;48.92
28267;BME280;15525;45.568;5.448;2023-02-28T03:55:43;98231.13;;;4.88;49.03
28267;BME280;15525;45.568;5.448;2023-02-28T03:58:16;98226.72;;;4.82;49.02
28267;BME280;15525;45.568;5.448;2023-02-28T04:01:09;98231.09;;;4.76;49.66
28267;BME280;15525;45.568;5.448;2023-02-28T04:03:38;98238.31;;;4.69;49.17
28267;BME280;15525;45.568;5.448;2023-02-28T04:06:06;98249.94;;;4.57;49.32
28267;BME280;15525;45.568;5.448;2023-02-28T04:08:32;98252.63;;;4.68;49.25
28267;BME280;15525;45.568;5.448;2023-02-28T04:11:05;98235.31;;;4.25;49.46
28267;BME280;15525;45.568;5.448;2023-02-28T04:13:31;98258.47;;;4.11;49.40
28267;BME280;15525;45.568;5.448;2023-02-28T04:15:57;98263.00;;;4.11;50.01
28267;BME280;15525;45.568;5.448;2023-02-28T04:18:22;98255.97;;;4.46;48.97
28267;BME280;15525;45.568;5.448;2023-02-28T04:20:48;98262.00;;;4.82;48.49
28267;BME280;15525;45.568;5.448;2023-02-28T04:23:13;98256.75;;;4.64;48.35
28267;BME280;15525;45.568;5.448;2023-02-28T04:25:38;98276.03;;;4.42;49.20
28267;BME280;15525;45.568;5.448;2023-02-28T04:28:05;98258.94;;;4.56;48.88
28267;BME280;15525;45.568;5.448;2023-02-28T04:30:31;98263.78;;;4.70;48.43
28267;BME280;15525;45.568;5.448;2023-02-28T04:32:58;98255.59;;;4.60;48.47
28267;BME280;15525;45.568;5.448;2023-02-28T04:35:23;98261.25;;;4.64;48.53
28267;BME280;15525;45.568;5.448;2023-02-28T04:37:49;98253.75;;;4.61;48.61
28267;BME280;15525;45.568;5.448;2023-02-28T04:40:15;98267.13;;;4.66;48.60
28267;BME280;15525;45.568;5.448;2023-02-28T04:42:40;98268.34;;;4.52;48.74
28267;BME280;15525;45.568;5.448;2023-02-28T04:45:06;98266.63;;;4.57;48.63
28267;BME280;15525;45.568;5.448;2023-02-28T04:47:32;98254.94;;;4.35;49.18
28267;BME280;15525;45.568;5.448;2023-02-28T04:49:57;98253.91;;;4.36;48.95
28267;BME280;15525;45.568;5.448;2023-02-28T04:52:23;98258.94;;;4.26;49.59
28267;BME280;15525;45.568;5.448;2023-02-28T04:54:48;98254.34;;;4.33;49.44
28267;BME280;15525;45.568;5.448;2023-02-28T04:57:14;98255.41;;;4.44;49.05
28267;BME280;15525;45.568;5.448;2023-02-28T04:59:39;98259.31;;;4.41;49.12
28267;BME280;15525;45.568;5.448;2023-02-28T05:02:05;98260.59;;;4.39;49.13
28267;BME280;15525;45.568;5.448;2023-02-28T05:04:33;98260.75;;;4.26;49.17
28267;BME280;15525;45.568;5.448;2023-02-28T05:07:00;98276.84;;;4.24;49.52
28267;BME280;15525;45.568;5.448;2023-02-28T05:09:25;98271.06;;;4.16;49.99
28267;BME280;15525;45.568;5.448;2023-02-28T05:11:51;98274.63;;;4.10;49.76
28267;BME280;15525;45.568;5.448;2023-02-28T05:14:17;98276.59;;;3.96;49.77
28267;BME280;15525;45.568;5.448;2023-02-28T05:16:42;98269.69;;;3.95;49.96
28267;BME280;15525;45.568;5.448;2023-02-28T05:19:08;98279.16;;;4.03;49.65
28267;BME280;15525;45.568;5.448;2023-02-28T05:21:34;98286.59;;;4.12;49.66
28267;BME280;15525;45.568;5.448;2023-02-28T05:24:03;98289.41;;;3.99;49.76
28267;BME280;15525;45.568;5.448;2023-02-28T05:26:29;98294.22;;;4.20;49.57
28267;BME280;15525;45.568;5.448;2023-02-28T05:28:55;98282.84;;;4.20;49.32
28267;BME280;15525;45.568;5.448;2023-02-28T05:31:21;98298.13;;;4.18;49.36
28267;BME280;15525;45.568;5.448;2023-02-28T05:33:46;98282.50;;;3.98;49.73
28267;BME280;15525;45.568;5.448;2023-02-28T05:36:12;98295.41;;;4.06;49.53
28267;BME280;15525;45.568;5.448;2023-02-28T05:38:38;98300.19;;;4.16;49.44
28267;BME280;15525;45.568;5.448;2023-02-28T05:41:10;98272.56;;;3.94;49.55
28267;BME280;15525;45.568;5.448;2023-02-28T05:43:36;98285.03;;;4.05;49.36
28267;BME280;15525;45.568;5.448;2023-02-28T05:46:07;98283.44;;;4.04;49.51
28267;BME280;15525;45.568;5.448;2023-02-28T05:48:34;98297.34;;;4.17;49.09
28267;BME280;15525;45.568;5.448;2023-02-28T05:50:59;98297.41;;;4.11;49.27
28267;BME280;15525;45.568;5.448;2023-02-28T05:53:25;98292.47;;;3.96;49.50
28267;BME280;15525;45.568;5.448;2023-02-28T05:55:51;98303.34;;;4.06;49.53
28267;BME280;15525;45.568;5.448;2023-02-28T05:58:16;98305.22;;;4.06;49.46
28267;BME280;15525;45.568;5.448;2023-02-28T06:00:42;98304.16;;;4.25;49.15
28267;BME280;15525;45.568;5.448;2023-02-28T06:03:07;98295.41;;;4.24;48.92
28267;BME280;15525;45.568;5.448;2023-02-28T06:05:33;98304.47;;;4.17;49.44
28267;BME280;15525;45.568;5.448;2023-02-28T06:07:58;98290.34;;;4.05;48.81
28267;BME280;15525;45.568;5.448;2023-02-28T06:10:24;98309.25;;;4.08;49.34
28267;BME280;15525;45.568;5.448;2023-02-28T06:12:49;98301.53;;;4.07;49.20
28267;BME280;15525;45.568;5.448;2023-02-28T06:15:15;98282.31;;;3.93;49.44
28267;BME280;15525;45.568;5.448;2023-02-28T06:17:42;98288.88;;;3.91;49.21
28267;BME280;15525;45.568;5.448;2023-02-28T06:20:09;98306.25;;;3.87;49.15
28267;BME280;15525;45.568;5.448;2023-02-28T06:22:36;98308.50;;;3.83;49.59
28267;BME280;15525;45.568;5.448;2023-02-28T06:25:03;98277.41;;;3.79;49.25
28267;BME280;15525;45.568;5.448;2023-02-28T06:27:30;98288.00;;;3.97;48.75
28267;BME280;15525;45.568;5.448;2023-02-28T06:29:56;98300.78;;;4.00;48.89
28267;BME280;15525;45.568;5.448;2023-02-28T06:32:22;98306.75;;;4.13;48.68
28267;BME280;15525;45.568;5.448;2023-02-28T06:34:47;98316.31;;;4.32;48.26
28267;BME280;15525;45.568;5.448;2023-02-28T06:37:12;98309.75;;;3.99;48.99
28267;BME280;15525;45.568;5.448;2023-02-28T06:39:38;98311.47;;;3.75;49.40
28267;BME280;15525;45.568;5.448;2023-02-28T06:42:04;98309.91;;;3.86;49.22
28267;BME280;15525;45.568;5.448;2023-02-28T06:44:30;98308.13;;;3.80;49.17
28267;BME280;15525;45.568;5.448;2023-02-28T06:47:01;98302.78;;;3.86;49.04
28267;BME280;15525;45.568;5.448;2023-02-28T06:49:31;98316.09;;;4.16;48.79
28267;BME280;15525;45.568;5.448;2023-02-28T06:51:56;98336.44;;;3.97;48.99
28267;BME280;15525;45.568;5.448;2023-02-28T06:54:22;98337.25;;;3.80;49.84
28267;BME280;15525;45.568;5.448;2023-02-28T06:56:47;98324.09;;;3.91;49.04
28267;BME280;15525;45.568;5.448;2023-02-28T06:59:13;98340.06;;;3.85;49.66
28267;BME280;15525;45.568;5.448;2023-02-28T07:01:39;98331.19;;;3.55;49.70
28267;BME280;15525;45.568;5.448;2023-02-28T07:04:05;98344.44;;;3.73;49.52
28267;BME280;15525;45.568;5.448;2023-02-28T07:06:31;98329.13;;;3.57;49.50
28267;BME280;15525;45.568;5.448;2023-02-28T07:08:57;98343.84;;;3.71;49.61
28267;BME280;15525;45.568;5.448;2023-02-28T07:11:24;98354.34;;;3.59;49.72
28267;BME280;15525;45.568;5.448;2023-02-28T07:13:51;98353.53;;;4.01;48.87
28267;BME280;15525;45.568;5.448;2023-02-28T07:16:17;98351.53;;;3.79;49.65
28267;BME280;15525;45.568;5.448;2023-02-28T07:18:43;98362.00;;;3.92;49.15
28267;BME280;15525;45.568;5.448;2023-02-28T07:21:10;98353.38;;;3.96;49.04
28267;BME280;15525;45.568;5.448;2023-02-28T07:23:36;98362.78;;;3.92;49.05
28267;BME280;15525;45.568;5.448;2023-02-28T07:26:03;98360.59;;;4.07;48.90
28267;BME280;15525;45.568;5.448;2023-02-28T07:28:29;98369.44;;;4.19;48.51
28267;BME280;15525;45.568;5.448;2023-02-28T07:30:55;98368.84;;;4.17;48.80
28267;BME280;15525;45.568;5.448;2023-02-28T07:33:20;98369.22;;;4.21;48.59
28267;BME280;15525;45.568;5.448;2023-02-28T07:35:46;98365.22;;;3.94;49.15
28267;BME280;15525;45.568;5.448;2023-02-28T07:38:11;98379.50;;;4.11;48.67
28267;BME280;15525;45.568;5.448;2023-02-28T07:40:38;98372.44;;;4.23;48.41
28267;BME280;15525;45.568;5.448;2023-02-28T07:43:04;98364.25;;;4.06;48.71
28267;BME280;15525;45.568;5.448;2023-02-28T07:45:30;98378.03;;;4.15;48.94
28267;BME280;15525;45.568;5.448;2023-02-28T07:47:57;98371.84;;;4.21;48.58
28267;BME280;15525;45.568;5.448;2023-02-28T07:50:23;98387.06;;;3.89;49.31
28267;BME280;15525;45.568;5.448;2023-02-28T07:52:48;98363.72;;;3.80;49.29
28267;BME280;15525;45.568;5.448;2023-02-28T07:55:14;98368.59;;;3.83;49.49
28267;BME280;15525;45.568;5.448;2023-02-28T07:57:40;98380.81;;;4.02;49.25
28267;BME280;15525;45.568;5.448;2023-02-28T08:00:08;98371.13;;;3.96;49.13
28267;BME280;15525;45.568;5.448;2023-02-28T08:02:37;98380.22;;;4.18;49.16
28267;BME280;15525;45.568;5.448;2023-02-28T08:05:03;98379.88;;;4.14;48.81
28267;BME280;15525;45.568;5.448;2023-02-28T08:07:29;98377.66;;;4.11;49.13
28267;BME280;15525;45.568;5.448;2023-02-28T08:09:54;98379.31;;;4.30;48.54
28267;BME280;15525;45.568;5.448;2023-02-28T08:12:20;98379.88;;;4.32;48.66
28267;BME280;15525;45.568;5.448;2023-02-28T08:14:45;98381.63;;;4.20;48.88
28267;BME280;15525;45.568;5.448;2023-02-28T08:17:11;98363.16;;;4.32;48.51
28267;BME280;15525;45.568;5.448;2023-02-28T08:19:36;98375.22;;;4.46;48.09
28267;BME280;15525;45.568;5.448;2023-02-28T08:22:02;98367.31;;;4.28;48.59
28267;BME280;15525;45.568;5.448;2023-02-28T08:24:28;98377.59;;;4.36;48.38
28267;BME280;15525;45.568;5.448;2023-02-28T08:26:54;98369.34;;;4.44;48.27
28267;BME280;15525;45.568;5.448;2023-02-28T08:29:20;98369.50;;;4.49;48.10
28267;BME280;15525;45.568;5.448;2023-02-28T08:31:45;98374.34;;;4.70;47.86
28267;BME280;15525;45.568;5.448;2023-02-28T08:34:14;98389.28;;;4.64;47.88
28267;BME280;15525;45.568;5.448;2023-02-28T08:36:40;98392.63;;;4.60;47.90
28267;BME280;15525;45.568;5.448;2023-02-28T08:39:06;98391.19;;;4.57;48.08
28267;BME280;15525;45.568;5.448;2023-02-28T08:41:33;98396.25;;;4.77;47.70
28267;BME280;15525;45.568;5.448;2023-02-28T08:43:58;98392.44;;;4.55;47.74
28267;BME280;15525;45.568;5.448;2023-02-28T08:46:24;98407.16;;;4.69;47.61
28267;BME280;15525;45.568;5.448;2023-02-28T08:48:54;98398.13;;;4.58;48.09
28267;BME280;15525;45.568;5.448;2023-02-28T08:51:19;98407.16;;;4.69;47.86
28267;BME280;15525;45.568;5.448;2023-02-28T08:53:55;98404.22;;;4.77;47.85
28267;BME280;15525;45.568;5.448;2023-02-28T08:56:22;98417.59;;;4.82;47.57
28267;BME280;15525;45.568;5.448;2023-02-28T08:58:49;98415.28;;;4.56;47.96
28267;BME280;15525;45.568;5.448;2023-02-28T09:01:19;98406.53;;;4.55;48.06
28267;BME280;15525;45.568;5.448;2023-02-28T09:03:47;98410.16;;;4.90;47.62
28267;BME280;15525;45.568;5.448;2023-02-28T09:06:13;98403.44;;;4.58;47.52
28267;BME280;15525;45.568;5.448;2023-02-28T09:08:40;98422.91;;;4.82;47.72
28267;BME280;15525;45.568;5.448;2023-02-28T09:11:05;98410.22;;;5.02;47.20
28267;BME280;15525;45.568;5.448;2023-02-28T09:13:31;98416.59;;;4.83;47.52
28267;BME280;15525;45.568;5.448;2023-02-28T09:15:58;98411.03;;;4.84;47.34
28267;BME280;15525;45.568;5.448;2023-02-28T09:18:25;98405.81;;;4.78;47.44
28267;BME280;15525;45.568;5.448;2023-02-28T09:20:51;98407.31;;;4.92;47.10
28267;BME280;15525;45.568;5.448;2023-02-28T09:23:17;98419.75;;;4.91;47.19
28267;BME280;15525;45.568;5.448;2023-02-28T09:25:50;98406.13;;;4.88;47.41
28267;BME280;15525;45.568;5.448;2023-02-28T09:28:16;98413.31;;;4.99;47.22
28267;BME280;15525;45.568;5.448;2023-02-28T09:30:44;98414.44;;;5.21;47.10
28267;BME280;15525;45.568;5.448;2023-02-28T09:33:10;98418.69;;;5.22;46.95
28267;BME280;15525;45.568;5.448;2023-02-28T09:35:35;98405.47;;;5.33;46.49
28267;BME280;15525;45.568;5.448;2023-02-28T09:38:03;98428.03;;;5.54;46.51
28267;BME280;15525;45.568;5.448;2023-02-28T09:40:29;98433.09;;;5.44;46.70
28267;BME280;15525;45.568;5.448;2023-02-28T09:42:57;98409.66;;;5.41;46.21
28267;BME280;15525;45.568;5.448;2023-02-28T09:47:58;98409.66;;;6.05;45.55
28267;BME280;15525;45.568;5.448;2023-02-28T09:50:38;98430.91;;;6.28;45.32
28267;BME280;15525;45.568;5.448;2023-02-28T09:53:14;98407.59;;;5.95;45.62
28267;BME280;15525;45.568;5.448;2023-02-28T09:55:58;98416.78;;;6.50;45.19
28267;BME280;15525;45.568;5.448;2023-02-28T10:01:24;98415.56;;;6.81;44.43
28267;BME280;15525;45.568;5.448;2023-02-28T10:03:56;98425.75;;;6.84;44.24
28267;BME280;15525;45.568;5.448;2023-02-28T10:06:39;98418.41;;;6.40;44.71
28267;BME280;15525;45.568;5.448;2023-02-28T10:11:45;98413.13;;;6.28;44.77
28267;BME280;15525;45.568;5.448;2023-02-28T10:14:15;98430.66;;;6.92;44.62
28267;BME280;15525;45.568;5.448;2023-02-28T10:16:54;98421.22;;;7.12;43.96
28267;BME280;15525;45.568;5.448;2023-02-28T10:22:19;98431.28;;;6.82;44.64
28267;BME280;15525;45.568;5.448;2023-02-28T10:24:49;98418.13;;;6.76;44.66
28267;BME280;15525;45.568;5.448;2023-02-28T10:27:31;98424.97;;;7.28;44.00
28267;BME280;15525;45.568;5.448;2023-02-28T10:29:59;98430.91;;;7.30;43.82
28267;BME280;15525;45.568;5.448;2023-02-28T10:32:32;98430.44;;;7.49;43.85
28267;BME280;15525;45.568;5.448;2023-02-28T10:37:42;98440.53;;;7.19;44.06
28267;BME280;15525;45.568;5.448;2023-02-28T10:43:03;98427.06;;;7.54;43.51
28267;BME280;15525;45.568;5.448;2023-02-28T10:45:31;98426.69;;;7.78;43.83
28267;BME280;15525;45.568;5.448;2023-02-28T10:48:06;98436.44;;;7.73;43.86
28267;BME280;15525;45.568;5.448;2023-02-28T10:50:51;98428.06;;;8.30;43.39
28267;BME280;15525;45.568;5.448;2023-02-28T10:53:30;98425.25;;;8.20;43.12
28267;BME280;15525;45.568;5.448;2023-02-28T10:59:01;98434.00;;;8.54;41.89
28267;BME280;15525;45.568;5.448;2023-02-28T11:01:41;98430.28;;;8.98;41.41
28267;BME280;15525;45.568;5.448;2023-02-28T11:07:06;98429.66;;;8.31;42.28
28267;BME280;15525;45.568;5.448;2023-02-28T11:09:39;98419.25;;;8.30;42.59
28267;BME280;15525;45.568;5.448;2023-02-28T11:12:07;98425.94;;;8.49;42.62
28267;BME280;15525;45.568;5.448;2023-02-28T11:14:52;98419.84;;;9.18;41.91
28267;BME280;15525;45.568;5.448;2023-02-28T11:17:23;98414.06;;;9.84;40.02
28267;BME280;15525;45.568;5.448;2023-02-28T11:19:56;98428.06;;;9.96;39.91
28267;BME280;15525;45.568;5.448;2023-02-28T11:22:28;98411.59;;;9.77;40.89
28267;BME280;15525;45.568;5.448;2023-02-28T11:24:57;98416.56;;;9.64;40.36
28267;BME280;15525;45.568;5.448;2023-02-28T11:29:58;98407.44;;;9.60;40.27
28267;BME280;15525;45.568;5.448;2023-02-28T11:32:29;98401.16;;;9.76;41.03
28267;BME280;15525;45.568;5.448;2023-02-28T11:37:37;98389.19;;;9.52;40.82
28267;BME280;15525;45.568;5.448;2023-02-28T11:40:13;98394.00;;;9.81;40.94
28267;BME280;15525;45.568;5.448;2023-02-28T11:45:39;98387.50;;;10.45;38.73
28267;BME280;15525;45.568;5.448;2023-02-28T11:48:20;98384.72;;;10.25;39.45
28267;BME280;15525;45.568;5.448;2023-02-28T11:51:10;98381.53;;;9.92;40.10
28267;BME280;15525;45.568;5.448;2023-02-28T11:53:49;98382.97;;;10.04;40.79
28267;BME280;15525;45.568;5.448;2023-02-28T11:56:25;98373.72;;;10.22;39.80
28267;BME280;15525;45.568;5.448;2023-02-28T12:10:26;98364.44;;;10.91;38.75
28267;BME280;15525;45.568;5.448;2023-02-28T12:13:06;98353.59;;;11.77;37.26
28267;BME280;15525;45.568;5.448;2023-02-28T12:28:53;98333.19;;;11.56;38.02
28267;BME280;15525;45.568;5.448;2023-02-28T12:31:23;98346.94;;;10.68;38.93
28267;BME280;15525;45.568;5.448;2023-02-28T12:33:56;98343.31;;;10.33;39.89
28267;BME280;15525;45.568;5.448;2023-02-28T12:36:24;98338.47;;;10.35;39.86
28267;BME280;15525;45.568;5.448;2023-02-28T12:39:11;98344.28;;;10.73;38.74
28267;BME280;15525;45.568;5.448;2023-02-28T12:41:46;98342.59;;;10.06;39.95
28267;BME280;15525;45.568;5.448;2023-02-28T12:47:04;98332.13;;;9.63;40.31
28267;BME280;15525;45.568;5.448;2023-02-28T12:49:39;98347.88;;;9.33;40.48
28267;BME280;15525;45.568;5.448;2023-02-28T12:52:08;98341.78;;;9.69;40.80
28267;BME280;15525;45.568;5.448;2023-02-28T12:54:44;98339.22;;;10.20;39.85
28267;BME280;15525;45.568;5.448;2023-02-28T12:57:23;98333.47;;;9.34;40.19
28267;BME280;15525;45.568;5.448;2023-02-28T13:00:00;98341.94;;;8.73;41.44
28267;BME280;15525;45.568;5.448;2023-02-28T13:08:13;98334.28;;;9.66;40.49
28267;BME280;15525;45.568;5.448;2023-02-28T13:10:47;98332.69;;;9.70;40.32
28267;BME280;15525;45.568;5.448;2023-02-28T13:13:20;98331.06;;;9.64;40.04
28267;BME280;15525;45.568;5.448;2023-02-28T13:16:03;98326.13;;;9.87;39.10
28267;BME280;15525;45.568;5.448;2023-02-28T13:18:43;98322.03;;;9.38;40.43
28267;BME280;15525;45.568;5.448;2023-02-28T13:21:23;98322.56;;;9.09;40.35
28267;BME280;15525;45.568;5.448;2023-02-28T13:26:21;98325.44;;;9.60;39.74
28267;BME280;15525;45.568;5.448;2023-02-28T13:31:24;98316.91;;;9.68;39.29
28267;BME280;15525;45.568;5.448;2023-02-28T13:36:31;98290.53;;;10.23;39.12
28267;BME280;15525;45.568;5.448;2023-02-28T13:39:01;98318.84;;;10.76;38.12
28267;BME280;15525;45.568;5.448;2023-02-28T13:52:16;98308.47;;;10.23;38.81
28267;BME280;15525;45.568;5.448;2023-02-28T13:55:17;98288.44;;;9.89;39.40
28267;BME280;15525;45.568;5.448;2023-02-28T13:58:06;98310.97;;;9.98;39.30
28267;BME280;15525;45.568;5.448;2023-02-28T14:03:56;98302.72;;;10.51;38.62
28267;BME280;15525;45.568;5.448;2023-02-28T14:06:30;98294.56;;;11.07;36.94
28267;BME280;15525;45.568;5.448;2023-02-28T14:09:48;98309.16;;;10.60;38.15
28267;BME280;15525;45.568;5.448;2023-02-28T14:11:48;98304.25;;;10.32;38.14
28267;BME280;15525;45.568;5.448;2023-02-28T14:17:04;98289.97;;;10.93;38.39
28267;BME280;15525;45.568;5.448;2023-02-28T14:19:31;98274.16;;;12.02;37.23
28267;BME280;15525;45.568;5.448;2023-02-28T14:22:40;98283.13;;;13.04;35.30
28267;BME280;15525;45.568;5.448;2023-02-28T14:25:25;98279.88;;;11.65;36.08
28267;BME280;15525;45.568;5.448;2023-02-28T14:31:13;98290.84;;;11.68;37.36
28267;BME280;15525;45.568;5.448;2023-02-28T14:36:33;98286.50;;;12.13;36.36
28267;BME280;15525;45.568;5.448;2023-02-28T14:39:10;98300.19;;;11.06;37.68
28267;BME280;15525;45.568;5.448;2023-02-28T14:41:39;98296.91;;;10.69;38.14
28267;BME280;15525;45.568;5.448;2023-02-28T14:44:21;98304.47;;;11.07;37.66
28267;BME280;15525;45.568;5.448;2023-02-28T14:46:52;98296.44;;;11.12;37.79
28267;BME280;15525;45.568;5.448;2023-02-28T14:51:49;98292.19;;;10.29;38.80
28267;BME280;15525;45.568;5.448;2023-02-28T14:54:16;98300.34;;;10.69;38.95
28267;BME280;15525;45.568;5.448;2023-02-28T14:56:49;98289.97;;;10.88;38.18
28267;BME280;15525;45.568;5.448;2023-02-28T14:59:25;98285.09;;;10.70;38.11
28267;BME280;15525;45.568;5.448;2023-02-28T15:01:51;98292.41;;;10.18;39.06
28267;BME280;15525;45.568;5.448;2023-02-28T15:04:26;98285.72;;;10.20;39.59
28267;BME280;15525;45.568;5.448;2023-02-28T15:07:14;98292.25;;;10.44;39.11
28267;BME280;15525;45.568;5.448;2023-02-28T15:09:39;98291.81;;;10.11;39.22
28267;BME280;15525;45.568;5.448;2023-02-28T15:12:05;98295.38;;;10.26;39.43
28267;BME280;15525;45.568;5.448;2023-02-28T15:14:31;98289.06;;;10.01;39.12
28267;BME280;15525;45.568;5.448;2023-02-28T15:17:05;98293.97;;;9.72;39.98
28267;BME280;15525;45.568;5.448;2023-02-28T15:19:36;98299.91;;;10.26;39.20
28267;BME280;15525;45.568;5.448;2023-02-28T15:22:06;98280.13;;;9.80;39.32
28267;BME280;15525;45.568;5.448;2023-02-28T15:24:45;98288.06;;;9.34;39.98
28267;BME280;15525;45.568;5.448;2023-02-28T15:27:32;98292.03;;;9.31;40.29